Time;durP1;ratioP1;P1;durP2;ratioP2;P2;SDS_P1;SDS_P2;PMS_P1;PMS_P2;Temp;Humidity;BMP_temperature;BMP_pressure;BME280_temperature;BME280_humidity;BME280_pressure;Samples;Min_cycle;Max_cycle;Signal;HPM_P1;HPM_P2
2023/07/28 00:01:14;;;;;;;26.08;12.75;;;;;;;;;;5044362;28;20024;-62
2023/07/28 00:03:40;;;;;;;33.88;14.57;;;;;;;;;;5045304;28;20106;-62
2023/07/28 00:06:06;;;;;;;36.85;14.85;;;;;;;;;;5046600;28;20036;-62
2023/07/28 00:08:32;;;;;;;32.97;15.57;;;;;;;;;;5043659;28;20036;-62
2023/07/28 00:10:58;;;;;;;26.42;13.20;;;;;;;;;;5043606;28;20044;-62
2023/07/28 00:13:24;;;;;;;27.63;14.13;;;;;;;;;;5044956;28;21409;-63
2023/07/28 00:15:50;;;;;;;31.15;14.45;;;;;;;;;;5044785;28;20048;-62
2023/07/28 00:18:18;;;;;;;24.67;12.82;;;;;;;;;;5045901;28;20033;-62
2023/07/28 00:20:44;;;;;;;25.67;12.77;;;;;;;;;;5042953;28;21949;-63
2023/07/28 00:23:10;;;;;;;25.73;13.00;;;;;;;;;;5044965;28;20040;-62
2023/07/28 00:25:36;;;;;;;30.70;13.50;;;;;;;;;;5045517;28;20084;-62
2023/07/28 00:28:02;;;;;;;34.47;14.27;;;;;;;;;;5043815;28;20119;-63
2023/07/28 00:30:29;;;;;;;26.77;12.90;;;;;;;;;;5042578;28;20124;-63
2023/07/28 00:32:55;;;;;;;25.83;12.88;;;;;;;;;;5045585;28;20039;-62
2023/07/28 00:35:21;;;;;;;29.05;11.85;;;;;;;;;;5045173;28;20044;-63
2023/07/28 00:37:47;;;;;;;23.92;13.40;;;;;;;;;;5043390;28;20025;-62
2023/07/28 00:40:13;;;;;;;28.45;12.32;;;;;;;;;;5045249;28;20043;-62
2023/07/28 00:42:39;;;;;;;25.50;11.30;;;;;;;;;;5046658;28;20036;-62
2023/07/28 00:45:05;;;;;;;24.65;13.30;;;;;;;;;;5046374;28;20040;-63
2023/07/28 00:47:31;;;;;;;23.92;13.32;;;;;;;;;;5044785;28;20055;-63
2023/07/28 00:49:58;;;;;;;23.38;12.68;;;;;;;;;;5048124;28;20683;-63
2023/07/28 00:52:24;;;;;;;29.27;13.60;;;;;;;;;;5050259;28;20029;-62
2023/07/28 00:54:50;;;;;;;28.48;12.80;;;;;;;;;;5050496;28;20044;-62
2023/07/28 00:57:18;;;;;;;28.45;13.23;;;;;;;;;;5049951;28;20043;-63
2023/07/28 00:59:44;;;;;;;31.10;15.05;;;;;;;;;;5049706;28;20051;-62
2023/07/28 01:02:11;;;;;;;31.73;13.82;;;;;;;;;;5050225;28;21058;-63
2023/07/28 01:04:37;;;;;;;32.83;14.57;;;;;;;;;;5048653;28;21289;-63
2023/07/28 01:07:03;;;;;;;28.55;13.95;;;;;;;;;;5050313;28;20036;-63
2023/07/28 01:09:37;;;;;;;36.25;16.15;;;;;;;;;;5047898;28;20031;-63
2023/07/28 01:12:07;;;;;;;27.08;14.38;;;;;;;;;;5045995;28;20036;-62
2023/07/28 01:14:33;;;;;;;33.58;16.00;;;;;;;;;;5046580;28;21846;-62
2023/07/28 01:17:02;;;;;;;35.40;16.15;;;;;;;;;;5047864;28;20045;-62
2023/07/28 01:19:28;;;;;;;32.17;15.18;;;;;;;;;;5048148;28;20044;-62
2023/07/28 01:22:05;;;;;;;31.98;16.10;;;;;;;;;;5048360;28;20380;-62
2023/07/28 01:24:51;;;;;;;30.75;15.35;;;;;;;;;;5047912;28;20127;-62
2023/07/28 01:27:18;;;;;;;28.20;14.23;;;;;;;;;;5047427;28;20028;-63
2023/07/28 01:29:44;;;;;;;23.15;13.80;;;;;;;;;;5032597;28;20040;-63
2023/07/28 01:32:11;;;;;;;24.30;13.60;;;;;;;;;;5048337;28;20074;-63
2023/07/28 01:34:37;;;;;;;22.48;12.25;;;;;;;;;;5048844;28;20040;-62
2023/07/28 01:37:03;;;;;;;23.17;11.70;;;;;;;;;;5047511;28;20031;-63
2023/07/28 01:39:29;;;;;;;24.35;12.80;;;;;;;;;;5049025;28;20055;-62
2023/07/28 01:41:55;;;;;;;24.13;12.18;;;;;;;;;;5046995;28;20078;-63
2023/07/28 01:44:21;;;;;;;22.60;13.25;;;;;;;;;;5028817;28;20074;-62
2023/07/28 01:46:47;;;;;;;21.90;11.60;;;;;;;;;;5048327;28;20049;-62
2023/07/28 01:49:14;;;;;;;16.65;10.38;;;;;;;;;;5030176;28;20032;-62
2023/07/28 01:51:40;;;;;;;20.80;10.50;;;;;;;;;;5047243;28;20521;-62
2023/07/28 01:54:06;;;;;;;23.67;10.20;;;;;;;;;;5046739;28;21508;-63
2023/07/28 01:56:32;;;;;;;20.35;10.70;;;;;;;;;;5048060;28;20736;-62
2023/07/28 01:58:58;;;;;;;16.33;10.27;;;;;;;;;;5048156;28;20910;-63
2023/07/28 02:01:24;;;;;;;25.05;11.60;;;;;;;;;;5046522;28;20024;-63
2023/07/28 02:03:50;;;;;;;22.45;12.82;;;;;;;;;;5047395;28;20028;-63
2023/07/28 02:06:16;;;;;;;25.27;12.80;;;;;;;;;;5048214;28;20032;-63
2023/07/28 02:08:42;;;;;;;24.45;12.77;;;;;;;;;;5046845;28;20043;-63
2023/07/28 02:11:08;;;;;;;26.98;13.80;;;;;;;;;;5047891;28;20028;-63
2023/07/28 02:13:34;;;;;;;24.50;14.88;;;;;;;;;;5047948;28;20085;-62
2023/07/28 02:16:00;;;;;;;43.13;17.63;;;;;;;;;;5047956;28;20043;-62
2023/07/28 02:18:26;;;;;;;33.25;16.25;;;;;;;;;;5028760;28;21573;-63
2023/07/28 02:20:52;;;;;;;31.48;15.73;;;;;;;;;;5045458;28;20147;-63
2023/07/28 02:23:18;;;;;;;41.10;18.45;;;;;;;;;;5032898;28;20060;-62
2023/07/28 02:25:45;;;;;;;33.50;18.60;;;;;;;;;;5047015;28;20029;-63
2023/07/28 02:28:11;;;;;;;36.55;17.15;;;;;;;;;;5047228;28;20133;-62
2023/07/28 02:30:38;;;;;;;34.30;17.58;;;;;;;;;;5046579;28;20044;-63
2023/07/28 02:33:04;;;;;;;30.70;17.40;;;;;;;;;;5045794;28;20029;-64
2023/07/28 02:35:31;;;;;;;35.50;16.75;;;;;;;;;;5043723;28;20039;-63
2023/07/28 02:37:58;;;;;;;33.65;18.02;;;;;;;;;;5046747;28;20032;-63
2023/07/28 02:40:24;;;;;;;33.22;16.88;;;;;;;;;;5043604;28;20421;-62
2023/07/28 02:42:53;;;;;;;29.92;16.35;;;;;;;;;;5045202;28;20135;-62
2023/07/28 02:45:19;;;;;;;33.95;16.55;;;;;;;;;;5047536;28;20122;-63
2023/07/28 02:47:45;;;;;;;27.30;15.10;;;;;;;;;;5046888;28;20489;-63
2023/07/28 02:50:12;;;;;;;30.35;16.25;;;;;;;;;;5046854;28;20024;-63
2023/07/28 02:52:38;;;;;;;30.08;14.35;;;;;;;;;;5047794;28;20770;-63
2023/07/28 02:55:04;;;;;;;32.65;15.15;;;;;;;;;;5030687;28;21741;-62
2023/07/28 02:57:30;;;;;;;34.05;15.45;;;;;;;;;;5043330;28;20032;-62
2023/07/28 02:59:56;;;;;;;29.88;14.70;;;;;;;;;;5044489;28;20054;-63
2023/07/28 03:02:22;;;;;;;32.78;13.73;;;;;;;;;;5046312;28;20031;-63
2023/07/28 03:04:48;;;;;;;28.67;14.13;;;;;;;;;;5045332;28;20068;-63
2023/07/28 03:07:14;;;;;;;24.20;13.10;;;;;;;;;;5045978;28;20039;-63
2023/07/28 03:09:40;;;;;;;31.80;13.40;;;;;;;;;;5045436;28;20033;-62
2023/07/28 03:12:07;;;;;;;33.25;14.32;;;;;;;;;;5045533;28;20425;-63
2023/07/28 03:14:33;;;;;;;21.77;12.63;;;;;;;;;;5046172;28;20036;-63
2023/07/28 03:16:59;;;;;;;25.73;11.70;;;;;;;;;;5045456;28;20036;-63
2023/07/28 03:19:25;;;;;;;37.92;13.73;;;;;;;;;;5045821;28;21368;-63
2023/07/28 03:21:51;;;;;;;26.52;11.98;;;;;;;;;;5045449;28;20036;-63
2023/07/28 03:24:17;;;;;;;26.98;11.30;;;;;;;;;;5045974;28;20036;-63
2023/07/28 03:26:43;;;;;;;22.23;11.02;;;;;;;;;;5045393;28;20032;-63
2023/07/28 03:29:09;;;;;;;22.17;11.82;;;;;;;;;;5043051;28;20044;-63
2023/07/28 03:31:35;;;;;;;22.67;11.25;;;;;;;;;;5046734;28;20035;-63
2023/07/28 03:34:02;;;;;;;21.33;10.15;;;;;;;;;;5033470;28;20131;-63
2023/07/28 03:36:28;;;;;;;22.33;9.57;;;;;;;;;;5044097;28;20032;-63
2023/07/28 03:38:54;;;;;;;24.00;9.63;;;;;;;;;;5045529;28;20051;-63
2023/07/28 03:41:20;;;;;;;19.50;8.85;;;;;;;;;;5046845;28;20033;-63
2023/07/28 03:43:46;;;;;;;20.13;9.70;;;;;;;;;;5046678;28;20040;-63
2023/07/28 03:46:13;;;;;;;19.00;7.75;;;;;;;;;;5045319;28;20032;-63
2023/07/28 03:48:39;;;;;;;23.88;9.57;;;;;;;;;;5047174;28;20039;-63
2023/07/28 03:51:05;;;;;;;25.10;9.48;;;;;;;;;;5047328;28;20032;-63
2023/07/28 03:53:31;;;;;;;22.48;9.80;;;;;;;;;;5046399;28;20025;-62
2023/07/28 03:55:58;;;;;;;22.08;9.32;;;;;;;;;;5046977;28;20105;-62
2023/07/28 03:58:27;;;;;;;22.52;9.10;;;;;;;;;;5046323;28;20032;-62
2023/07/28 04:00:53;;;;;;;22.08;8.43;;;;;;;;;;5045765;28;20036;-62
2023/07/28 04:03:20;;;;;;;23.70;8.60;;;;;;;;;;5046112;28;20036;-63
2023/07/28 04:05:46;;;;;;;21.13;8.38;;;;;;;;;;5044105;28;20041;-62
2023/07/28 04:08:12;;;;;;;23.73;9.30;;;;;;;;;;5044154;28;20036;-62
2023/07/28 04:10:38;;;;;;;17.95;8.02;;;;;;;;;;5043870;28;20043;-62
2023/07/28 04:13:04;;;;;;;16.15;8.73;;;;;;;;;;5044273;28;20108;-63
2023/07/28 04:15:30;;;;;;;24.35;9.02;;;;;;;;;;5043660;28;20218;-63
2023/07/28 04:17:56;;;;;;;28.00;9.80;;;;;;;;;;5043026;28;20043;-62
2023/07/28 04:20:22;;;;;;;22.95;8.85;;;;;;;;;;5030116;28;20048;-63
2023/07/28 04:22:48;;;;;;;25.73;8.82;;;;;;;;;;5045668;28;20387;-63
2023/07/28 04:25:14;;;;;;;20.98;8.35;;;;;;;;;;5048686;28;20035;-62
2023/07/28 04:27:40;;;;;;;23.05;8.95;;;;;;;;;;5048135;28;20032;-63
2023/07/28 04:30:07;;;;;;;21.08;9.10;;;;;;;;;;5048541;28;20064;-62
2023/07/28 04:32:33;;;;;;;23.15;8.82;;;;;;;;;;5048001;28;20106;-63
2023/07/28 04:34:59;;;;;;;19.52;8.80;;;;;;;;;;5050317;28;20032;-63
2023/07/28 04:37:25;;;;;;;15.75;8.10;;;;;;;;;;5026771;28;20040;-63
2023/07/28 04:39:51;;;;;;;18.50;8.85;;;;;;;;;;5047137;28;20515;-63
2023/07/28 04:42:17;;;;;;;19.00;8.27;;;;;;;;;;5048262;28;20040;-62
2023/07/28 04:44:44;;;;;;;15.38;7.35;;;;;;;;;;5046138;28;20040;-63
2023/07/28 04:47:10;;;;;;;17.75;8.30;;;;;;;;;;5047543;28;20060;-62
2023/07/28 04:49:36;;;;;;;15.45;7.28;;;;;;;;;;5048565;28;20041;-63
2023/07/28 04:52:03;;;;;;;22.63;7.88;;;;;;;;;;5051452;28;20131;-62
2023/07/28 04:54:29;;;;;;;15.23;7.38;;;;;;;;;;5049341;28;20038;-62
2023/07/28 04:56:55;;;;;;;18.55;7.82;;;;;;;;;;5050641;28;20036;-63
2023/07/28 04:59:21;;;;;;;20.13;7.57;;;;;;;;;;5048939;28;20032;-62
2023/07/28 05:01:47;;;;;;;20.73;7.68;;;;;;;;;;5049802;28;20028;-62
2023/07/28 05:04:13;;;;;;;17.25;7.50;;;;;;;;;;5050112;28;20067;-63
2023/07/28 05:06:39;;;;;;;14.85;7.38;;;;;;;;;;5047086;28;20107;-62
2023/07/28 05:09:05;;;;;;;15.52;7.15;;;;;;;;;;5049812;28;20087;-63
2023/07/28 05:11:31;;;;;;;17.05;6.97;;;;;;;;;;5048567;28;21264;-63
2023/07/28 05:13:57;;;;;;;15.10;6.38;;;;;;;;;;5046099;28;20519;-62
2023/07/28 05:16:23;;;;;;;18.70;6.88;;;;;;;;;;5049349;28;20842;-62
2023/07/28 05:18:49;;;;;;;15.75;7.20;;;;;;;;;;5047386;28;20032;-63
2023/07/28 05:21:16;;;;;;;12.07;6.40;;;;;;;;;;5048271;28;20060;-62
2023/07/28 05:23:42;;;;;;;15.93;6.85;;;;;;;;;;5048138;28;20071;-62
2023/07/28 05:26:08;;;;;;;15.82;7.57;;;;;;;;;;5047104;28;20075;-62
2023/07/28 05:28:35;;;;;;;15.15;6.57;;;;;;;;;;5048187;28;20060;-62
2023/07/28 05:31:05;;;;;;;13.30;6.88;;;;;;;;;;5028289;28;20321;-63
2023/07/28 05:33:31;;;;;;;16.75;6.80;;;;;;;;;;5047482;28;20063;-62
2023/07/28 05:36:04;;;;;;;15.27;7.50;;;;;;;;;;5048190;28;20032;-63
2023/07/28 05:38:30;;;;;;;13.60;7.32;;;;;;;;;;5048968;28;20041;-62
2023/07/28 05:41:03;;;;;;;13.85;6.63;;;;;;;;;;5048500;28;20525;-62
2023/07/28 05:43:29;;;;;;;13.53;7.30;;;;;;;;;;5047894;28;20107;-62
2023/07/28 05:45:56;;;;;;;15.82;7.38;;;;;;;;;;5047794;28;20281;-62
2023/07/28 05:48:22;;;;;;;18.30;7.80;;;;;;;;;;5048807;28;20144;-62
2023/07/28 05:50:48;;;;;;;17.23;8.68;;;;;;;;;;5048596;28;20035;-63
2023/07/28 05:53:14;;;;;;;16.20;8.15;;;;;;;;;;5045929;28;20412;-63
2023/07/28 05:55:41;;;;;;;14.43;8.13;;;;;;;;;;5047175;28;20071;-63
2023/07/28 05:58:07;;;;;;;13.88;7.93;;;;;;;;;;5048737;28;20036;-62
2023/07/28 06:00:33;;;;;;;12.40;7.20;;;;;;;;;;5047788;28;20894;-62
2023/07/28 06:02:59;;;;;;;16.83;7.97;;;;;;;;;;5047019;28;20483;-62
2023/07/28 06:05:25;;;;;;;16.33;7.40;;;;;;;;;;5045943;28;20036;-63
2023/07/28 06:07:51;;;;;;;12.07;8.02;;;;;;;;;;5047111;28;20042;-62
2023/07/28 06:10:20;;;;;;;12.35;7.28;;;;;;;;;;5047690;28;20028;-63
2023/07/28 06:12:46;;;;;;;15.80;8.40;;;;;;;;;;5048666;28;20035;-62
2023/07/28 06:15:12;;;;;;;14.93;8.20;;;;;;;;;;5047369;28;20040;-62
2023/07/28 06:17:38;;;;;;;14.57;7.70;;;;;;;;;;5045988;28;20028;-62
2023/07/28 06:20:04;;;;;;;15.05;7.55;;;;;;;;;;5046989;28;20041;-62
2023/07/28 06:22:30;;;;;;;16.23;9.07;;;;;;;;;;5047723;28;20025;-62
2023/07/28 06:24:56;;;;;;;12.80;7.75;;;;;;;;;;5046217;28;20381;-63
2023/07/28 06:27:22;;;;;;;12.77;8.25;;;;;;;;;;5045055;28;20620;-62
2023/07/28 06:29:48;;;;;;;15.90;9.35;;;;;;;;;;5047782;28;20157;-62
2023/07/28 06:32:14;;;;;;;16.30;9.68;;;;;;;;;;5047081;28;20040;-62
2023/07/28 06:34:41;;;;;;;17.52;8.75;;;;;;;;;;5045701;28;20221;-62
2023/07/28 06:37:07;;;;;;;14.65;8.50;;;;;;;;;;5041077;28;20036;-62
2023/07/28 06:39:33;;;;;;;12.55;8.43;;;;;;;;;;5044739;28;20024;-62
2023/07/28 06:41:59;;;;;;;14.82;9.18;;;;;;;;;;5043075;28;20032;-62
2023/07/28 06:44:25;;;;;;;13.50;9.65;;;;;;;;;;5041132;28;20068;-62
2023/07/28 06:46:51;;;;;;;12.27;9.00;;;;;;;;;;5043088;28;20064;-67
2023/07/28 06:49:17;;;;;;;13.85;9.13;;;;;;;;;;5043926;28;20496;-68
2023/07/28 06:51:43;;;;;;;12.73;8.20;;;;;;;;;;5041297;28;20090;-67
2023/07/28 06:54:12;;;;;;;10.57;8.55;;;;;;;;;;5043508;28;21620;-67
2023/07/28 06:56:38;;;;;;;18.77;8.65;;;;;;;;;;5047673;28;20047;-67
2023/07/28 06:59:04;;;;;;;10.25;8.07;;;;;;;;;;5045760;28;20415;-66
2023/07/28 07:01:30;;;;;;;9.63;6.97;;;;;;;;;;5045246;28;20127;-66
2023/07/28 07:03:57;;;;;;;14.85;8.52;;;;;;;;;;5045506;28;20032;-67
2023/07/28 07:06:23;;;;;;;10.55;8.43;;;;;;;;;;5046769;28;20157;-67
2023/07/28 07:08:49;;;;;;;11.35;7.07;;;;;;;;;;5045968;28;20044;-66
2023/07/28 07:11:15;;;;;;;12.35;7.30;;;;;;;;;;5045451;28;20052;-67
2023/07/28 07:13:41;;;;;;;10.13;7.80;;;;;;;;;;5045688;28;20020;-66
2023/07/28 07:16:15;;;;;;;11.40;7.93;;;;;;;;;;5019527;28;20134;-66
2023/07/28 07:18:41;;;;;;;12.68;8.48;;;;;;;;;;5039332;28;20054;-67
2023/07/28 07:21:07;;;;;;;12.98;8.80;;;;;;;;;;5023987;28;20037;-67
2023/07/28 07:23:33;;;;;;;13.23;8.00;;;;;;;;;;5043942;28;20032;-68
2023/07/28 07:25:59;;;;;;;10.05;7.25;;;;;;;;;;5039878;28;21803;-68
2023/07/28 07:28:27;;;;;;;9.02;6.57;;;;;;;;;;5045024;28;20098;-67
2023/07/28 07:30:53;;;;;;;9.30;6.28;;;;;;;;;;5044395;28;20144;-67
2023/07/28 07:33:19;;;;;;;7.32;5.90;;;;;;;;;;5045292;28;20143;-67
2023/07/28 07:35:45;;;;;;;8.02;5.53;;;;;;;;;;5044632;28;20040;-66
2023/07/28 07:38:11;;;;;;;10.00;6.10;;;;;;;;;;5046526;28;20111;-67
2023/07/28 07:40:37;;;;;;;10.15;6.60;;;;;;;;;;5042835;28;20044;-67
2023/07/28 07:43:07;;;;;;;9.00;6.35;;;;;;;;;;5046172;28;20075;-67
2023/07/28 07:45:33;;;;;;;10.43;7.32;;;;;;;;;;5044846;28;20031;-67
2023/07/28 07:47:59;;;;;;;9.38;7.65;;;;;;;;;;5046339;28;20051;-67
2023/07/28 07:50:26;;;;;;;9.60;8.20;;;;;;;;;;5046050;28;20032;-67
2023/07/28 07:52:52;;;;;;;11.63;8.23;;;;;;;;;;5047176;28;20028;-67
2023/07/28 07:55:18;;;;;;;10.07;7.45;;;;;;;;;;5047355;28;20128;-67
2023/07/28 07:57:44;;;;;;;11.18;7.22;;;;;;;;;;5045336;28;20093;-67
2023/07/28 08:00:10;;;;;;;13.73;7.82;;;;;;;;;;5046592;28;20039;-66
2023/07/28 08:02:36;;;;;;;10.07;7.53;;;;;;;;;;5046265;28;20119;-67
2023/07/28 08:05:03;;;;;;;8.05;6.45;;;;;;;;;;5046421;28;20060;-67
2023/07/28 08:07:29;;;;;;;11.07;8.77;;;;;;;;;;5043754;28;20940;-67
2023/07/28 08:09:55;;;;;;;9.60;7.03;;;;;;;;;;5045856;28;20032;-67
2023/07/28 08:12:21;;;;;;;9.63;7.35;;;;;;;;;;5045855;28;20043;-67
2023/07/28 08:14:47;;;;;;;8.15;7.10;;;;;;;;;;5046614;28;20041;-67
2023/07/28 08:17:13;;;;;;;10.10;7.40;;;;;;;;;;5044714;28;20747;-66
2023/07/28 08:19:40;;;;;;;8.60;6.35;;;;;;;;;;5046040;28;20490;-66
2023/07/28 08:22:06;;;;;;;10.35;7.30;;;;;;;;;;5046098;28;20041;-66
2023/07/28 08:24:33;;;;;;;12.35;7.22;;;;;;;;;;5046973;28;20036;-67
2023/07/28 08:26:59;;;;;;;10.00;6.85;;;;;;;;;;5044898;28;20021;-67
2023/07/28 08:29:25;;;;;;;10.68;6.70;;;;;;;;;;5046840;28;20028;-67
2023/07/28 08:31:51;;;;;;;8.30;6.05;;;;;;;;;;5044930;28;20052;-67
2023/07/28 08:34:17;;;;;;;7.70;5.57;;;;;;;;;;5045593;28;20033;-67
2023/07/28 08:36:44;;;;;;;7.50;5.32;;;;;;;;;;5027273;28;20044;-67
2023/07/28 08:39:10;;;;;;;9.68;6.18;;;;;;;;;;5045365;28;20376;-67
2023/07/28 08:41:36;;;;;;;9.27;5.45;;;;;;;;;;5044819;28;20836;-66
2023/07/28 08:44:03;;;;;;;7.38;5.90;;;;;;;;;;5055292;28;20041;-67
2023/07/28 08:46:30;;;;;;;7.15;5.50;;;;;;;;;;5052159;28;20032;-67
2023/07/28 08:48:56;;;;;;;10.80;5.97;;;;;;;;;;5054787;28;20075;-67
2023/07/28 08:51:25;;;;;;;8.43;6.70;;;;;;;;;;5054764;28;20060;-67
2023/07/28 08:53:51;;;;;;;9.73;6.20;;;;;;;;;;5036496;28;20036;-67
2023/07/28 08:56:17;;;;;;;7.68;6.07;;;;;;;;;;5052446;28;20035;-67
2023/07/28 08:58:44;;;;;;;8.77;6.65;;;;;;;;;;5054731;28;20028;-67
2023/07/28 09:01:11;;;;;;;6.63;5.30;;;;;;;;;;5056856;28;20105;-67
2023/07/28 09:03:41;;;;;;;7.30;5.43;;;;;;;;;;5056593;28;20036;-67
2023/07/28 09:06:10;;;;;;;8.13;4.97;;;;;;;;;;5054709;28;20039;-67
2023/07/28 09:08:37;;;;;;;6.53;5.55;;;;;;;;;;5055650;28;20047;-67
2023/07/28 09:11:05;;;;;;;7.10;5.45;;;;;;;;;;5060167;28;20028;-67
2023/07/28 09:13:36;;;;;;;6.85;4.70;;;;;;;;;;5060163;28;20051;-66
2023/07/28 09:16:02;;;;;;;6.75;4.68;;;;;;;;;;5057701;28;20034;-67
2023/07/28 09:18:29;;;;;;;6.95;4.80;;;;;;;;;;5042277;28;20044;-66
2023/07/28 09:20:58;;;;;;;8.25;4.50;;;;;;;;;;5061052;28;20110;-66
2023/07/28 09:23:30;;;;;;;8.93;4.40;;;;;;;;;;5060410;28;20028;-66
2023/07/28 09:26:04;;;;;;;7.05;4.50;;;;;;;;;;5058932;28;20032;-67
2023/07/28 09:28:41;;;;;;;6.50;4.55;;;;;;;;;;5060652;28;20047;-66
2023/07/28 09:31:07;;;;;;;9.63;4.80;;;;;;;;;;5059386;28;20035;-67
2023/07/28 09:33:35;;;;;;;6.88;4.03;;;;;;;;;;5058797;28;20407;-66
2023/07/28 09:36:08;;;;;;;7.47;4.45;;;;;;;;;;5059612;28;20153;-66
2023/07/28 09:38:36;;;;;;;4.82;3.55;;;;;;;;;;5059480;28;20059;-66
2023/07/28 09:41:11;;;;;;;5.00;3.13;;;;;;;;;;5059618;28;20021;-67
2023/07/28 09:43:38;;;;;;;16.00;3.78;;;;;;;;;;5060188;28;20237;-67
2023/07/28 09:46:08;;;;;;;5.00;3.13;;;;;;;;;;5059150;28;20041;-67
2023/07/28 09:48:35;;;;;;;6.32;3.55;;;;;;;;;;5058530;28;20049;-66
2023/07/28 09:51:06;;;;;;;5.85;3.58;;;;;;;;;;5060252;28;20027;-66
2023/07/28 09:53:35;;;;;;;5.65;4.10;;;;;;;;;;5059608;28;20030;-66
2023/07/28 09:56:02;;;;;;;6.25;3.85;;;;;;;;;;5041515;28;20113;-67
2023/07/28 09:58:31;;;;;;;7.88;4.20;;;;;;;;;;5053466;28;20077;-67
2023/07/28 10:00:57;;;;;;;7.07;4.10;;;;;;;;;;5059512;28;20036;-67
2023/07/28 10:03:24;;;;;;;5.47;3.40;;;;;;;;;;5057602;28;20037;-66
2023/07/28 10:05:50;;;;;;;6.03;3.67;;;;;;;;;;5058136;28;20036;-66
2023/07/28 10:08:16;;;;;;;6.72;3.42;;;;;;;;;;5040330;28;20025;-67
2023/07/28 10:10:43;;;;;;;9.10;3.33;;;;;;;;;;5040989;28;20072;-67
2023/07/28 10:13:19;;;;;;;4.82;3.33;;;;;;;;;;5058668;28;20129;-66
2023/07/28 10:15:47;;;;;;;4.93;3.28;;;;;;;;;;5059551;28;20024;-66
2023/07/28 10:18:14;;;;;;;6.50;3.35;;;;;;;;;;5058387;28;20028;-67
2023/07/28 10:20:41;;;;;;;5.30;3.47;;;;;;;;;;5039644;28;20119;-67
2023/07/28 10:23:11;;;;;;;5.55;2.90;;;;;;;;;;5059034;28;21389;-67
2023/07/28 10:25:38;;;;;;;6.22;3.70;;;;;;;;;;5059075;28;20101;-67
2023/07/28 10:28:04;;;;;;;4.70;2.67;;;;;;;;;;5057795;28;20040;-67
2023/07/28 10:30:36;;;;;;;6.85;3.13;;;;;;;;;;5059398;28;20517;-67
2023/07/28 10:33:02;;;;;;;7.18;2.53;;;;;;;;;;5058290;28;20038;-67
2023/07/28 10:35:31;;;;;;;5.15;2.60;;;;;;;;;;5058987;28;20063;-67
2023/07/28 10:37:57;;;;;;;5.25;2.35;;;;;;;;;;5058381;28;20162;-66
2023/07/28 10:40:27;;;;;;;3.95;2.20;;;;;;;;;;5058584;28;20088;-67
2023/07/28 10:42:54;;;;;;;6.15;2.53;;;;;;;;;;5058886;28;20034;-67
2023/07/28 10:45:20;;;;;;;5.03;2.42;;;;;;;;;;5059089;28;20471;-67
2023/07/28 10:47:47;;;;;;;4.97;2.25;;;;;;;;;;5056313;28;20081;-67
2023/07/28 10:50:15;;;;;;;5.13;2.38;;;;;;;;;;5057873;28;20020;-67
2023/07/28 10:52:44;;;;;;;5.30;2.20;;;;;;;;;;5040777;28;20032;-67
2023/07/28 10:55:14;;;;;;;6.18;2.08;;;;;;;;;;5058028;28;20031;-67
2023/07/28 10:57:44;;;;;;;3.60;1.90;;;;;;;;;;5057804;28;20029;-67
2023/07/28 11:00:12;;;;;;;4.15;1.50;;;;;;;;;;5057943;28;20028;-67
2023/07/28 11:02:48;;;;;;;4.82;1.80;;;;;;;;;;5054814;28;20036;-67
2023/07/28 11:05:24;;;;;;;3.72;1.67;;;;;;;;;;5056659;28;20391;-67
2023/07/28 11:07:54;;;;;;;3.75;1.98;;;;;;;;;;5057790;28;20021;-67
2023/07/28 11:10:20;;;;;;;10.07;2.53;;;;;;;;;;5042558;28;20024;-67
2023/07/28 11:12:48;;;;;;;5.07;1.90;;;;;;;;;;5058348;28;20039;-67
2023/07/28 11:15:15;;;;;;;3.83;1.70;;;;;;;;;;5057557;28;20049;-67
2023/07/28 11:17:45;;;;;;;4.53;2.03;;;;;;;;;;5057297;28;20037;-67
2023/07/28 11:20:18;;;;;;;7.13;2.50;;;;;;;;;;5056596;28;20020;-67
2023/07/28 11:22:45;;;;;;;6.20;2.10;;;;;;;;;;5057855;28;20524;-67
2023/07/28 11:25:11;;;;;;;3.85;1.95;;;;;;;;;;5057971;28;20028;-66
2023/07/28 11:27:37;;;;;;;3.45;1.60;;;;;;;;;;5055423;28;20981;-67
2023/07/28 11:30:04;;;;;;;4.00;1.88;;;;;;;;;;5057514;28;20110;-67
2023/07/28 11:32:37;;;;;;;4.85;1.90;;;;;;;;;;5056118;28;20100;-67
2023/07/28 11:35:07;;;;;;;12.77;1.90;;;;;;;;;;5057482;28;20032;-67
2023/07/28 11:37:36;;;;;;;19.17;1.90;;;;;;;;;;5056283;28;20051;-67
2023/07/28 11:40:06;;;;;;;3.85;1.73;;;;;;;;;;5056819;28;20032;-67
2023/07/28 11:42:33;;;;;;;4.45;1.58;;;;;;;;;;5057077;28;20040;-67
2023/07/28 11:44:59;;;;;;;3.45;1.60;;;;;;;;;;5057517;28;20050;-67
2023/07/28 11:47:25;;;;;;;5.78;1.98;;;;;;;;;;5041286;28;20048;-67
2023/07/28 11:49:51;;;;;;;4.82;1.73;;;;;;;;;;5057819;28;20028;-67
2023/07/28 11:52:18;;;;;;;4.80;1.30;;;;;;;;;;5057674;28;20030;-67
2023/07/28 11:54:44;;;;;;;4.32;1.60;;;;;;;;;;5057319;28;20039;-68
2023/07/28 11:57:11;;;;;;;3.05;1.70;;;;;;;;;;5056758;28;20029;-67
2023/07/28 11:59:37;;;;;;;3.05;1.30;;;;;;;;;;5057212;28;20546;-68
2023/07/28 12:02:04;;;;;;;2.97;1.65;;;;;;;;;;5056639;28;20543;-67
2023/07/28 12:04:38;;;;;;;4.78;1.60;;;;;;;;;;5056736;28;20484;-67
2023/07/28 12:07:06;;;;;;;4.07;1.30;;;;;;;;;;5056794;28;20028;-67
2023/07/28 12:09:33;;;;;;;3.70;1.40;;;;;;;;;;5056777;28;20036;-67
2023/07/28 12:11:59;;;;;;;2.67;1.25;;;;;;;;;;5055954;28;20051;-67
2023/07/28 12:14:32;;;;;;;4.28;1.13;;;;;;;;;;5056318;28;20060;-67
2023/07/28 12:16:58;;;;;;;;;;;;;;;;;;5054341;28;20530;-67
2023/07/28 12:19:24;;;;;;;10.80;1.77;;;;;;;;;;5056084;28;19919;-67
2023/07/28 12:21:51;;;;;;;5.18;1.45;;;;;;;;;;5056664;28;20106;-67
2023/07/28 12:24:17;;;;;;;2.55;1.10;;;;;;;;;;5056177;28;20128;-67
2023/07/28 12:26:43;;;;;;;6.82;1.25;;;;;;;;;;5056088;28;20147;-67
2023/07/28 12:29:11;;;;;;;2.35;1.20;;;;;;;;;;5055620;28;20035;-67
2023/07/28 12:31:37;;;;;;;4.22;1.35;;;;;;;;;;5056353;28;20028;-67
2023/07/28 12:34:03;;;;;;;3.63;1.15;;;;;;;;;;5056478;28;20107;-67
2023/07/28 12:36:29;;;;;;;2.90;1.10;;;;;;;;;;5054514;28;20063;-67
2023/07/28 12:38:55;;;;;;;4.05;1.30;;;;;;;;;;5055137;28;20118;-67
2023/07/28 12:41:21;;;;;;;3.63;2.35;;;;;;;;;;5056947;28;20090;-67
2023/07/28 12:43:48;;;;;;;4.15;1.20;;;;;;;;;;5055691;28;20043;-67
2023/07/28 12:46:14;;;;;;;4.13;1.15;;;;;;;;;;5060188;28;20490;-67
2023/07/28 12:48:40;;;;;;;1.98;1.15;;;;;;;;;;5059926;28;20774;-67
2023/07/28 12:51:09;;;;;;;3.60;1.40;;;;;;;;;;5061083;28;20040;-67
2023/07/28 12:53:35;;;;;;;1.85;1.20;;;;;;;;;;5060244;28;20492;-67
2023/07/28 12:56:01;;;;;;;1.65;1.00;;;;;;;;;;5060279;28;20513;-67
2023/07/28 12:58:28;;;;;;;2.08;0.93;;;;;;;;;;5060851;28;20032;-67
2023/07/28 13:00:56;;;;;;;4.80;1.30;;;;;;;;;;5060565;28;20040;-67
2023/07/28 13:03:22;;;;;;;1.83;1.08;;;;;;;;;;5059533;28;22140;-63
2023/07/28 13:05:48;;;;;;;4.00;1.20;;;;;;;;;;5058939;28;20103;-63
2023/07/28 13:08:14;;;;;;;2.72;1.30;;;;;;;;;;5058691;28;20033;-63
2023/07/28 13:10:40;;;;;;;6.63;1.60;;;;;;;;;;5041060;28;20028;-63
2023/07/28 13:13:06;;;;;;;3.55;1.45;;;;;;;;;;5059382;28;20846;-63
2023/07/28 13:15:32;;;;;;;2.72;1.45;;;;;;;;;;5057692;28;20055;-63
2023/07/28 13:17:58;;;;;;;4.03;1.70;;;;;;;;;;5059064;28;20056;-63
2023/07/28 13:20:24;;;;;;;2.45;1.42;;;;;;;;;;5057307;28;20066;-63
2023/07/28 13:22:50;;;;;;;2.72;1.63;;;;;;;;;;5058636;28;21013;-62
2023/07/28 13:25:17;;;;;;;3.50;1.48;;;;;;;;;;5059436;28;20033;-62
2023/07/28 13:27:43;;;;;;;7.97;1.80;;;;;;;;;;5056595;28;20021;-62
2023/07/28 13:30:10;;;;;;;5.15;1.88;;;;;;;;;;5059567;28;20074;-62
2023/07/28 13:32:36;;;;;;;5.35;1.85;;;;;;;;;;5059437;28;20131;-63
2023/07/28 13:35:02;;;;;;;6.32;1.65;;;;;;;;;;5058613;28;20041;-62
2023/07/28 13:37:28;;;;;;;3.55;1.70;;;;;;;;;;5059453;28;20174;-63
2023/07/28 13:39:54;;;;;;;3.53;1.48;;;;;;;;;;5058809;28;20033;-62
2023/07/28 13:42:20;;;;;;;3.67;1.83;;;;;;;;;;5059856;28;20156;-63
2023/07/28 13:44:46;;;;;;;3.03;1.52;;;;;;;;;;5058556;28;20033;-63
2023/07/28 13:47:12;;;;;;;3.53;2.22;;;;;;;;;;5058484;28;20106;-63
2023/07/28 13:49:38;;;;;;;3.13;1.88;;;;;;;;;;5058631;28;20071;-62
2023/07/28 13:52:04;;;;;;;2.53;1.60;;;;;;;;;;5058952;28;20029;-62
2023/07/28 13:54:33;;;;;;;3.08;1.60;;;;;;;;;;5058640;28;20109;-62
2023/07/28 13:56:59;;;;;;;5.57;2.08;;;;;;;;;;5058002;28;20032;-63
2023/07/28 13:59:25;;;;;;;4.60;2.20;;;;;;;;;;5059874;28;20756;-63
2023/07/28 14:01:52;;;;;;;6.25;2.47;;;;;;;;;;5058702;28;20024;-63
2023/07/28 14:04:18;;;;;;;3.92;2.10;;;;;;;;;;5058416;28;20033;-62
2023/07/28 14:06:44;;;;;;;4.65;2.00;;;;;;;;;;5057321;28;20973;-62
2023/07/28 14:09:10;;;;;;;4.65;2.08;;;;;;;;;;5058839;28;20025;-62
2023/07/28 14:11:36;;;;;;;3.35;1.92;;;;;;;;;;5058736;28;20413;-63
2023/07/28 14:14:02;;;;;;;3.22;1.60;;;;;;;;;;5058851;28;20036;-62
2023/07/28 14:16:28;;;;;;;5.40;1.77;;;;;;;;;;5058766;28;20082;-62
2023/07/28 14:18:54;;;;;;;4.38;2.22;;;;;;;;;;5059337;28;20093;-62
2023/07/28 14:21:21;;;;;;;3.50;1.85;;;;;;;;;;5059230;28;20068;-62
2023/07/28 14:23:49;;;;;;;5.93;2.17;;;;;;;;;;5059032;28;20055;-63
2023/07/28 14:26:15;;;;;;;7.00;2.03;;;;;;;;;;5059323;28;20165;-62
2023/07/28 14:28:41;;;;;;;4.85;1.98;;;;;;;;;;5057861;28;20103;-63
2023/07/28 14:31:07;;;;;;;2.40;1.45;;;;;;;;;;5057888;28;20071;-62